Time;durP1;ratioP1;P1;durP2;ratioP2;P2;SDS_P1;SDS_P2;PMS_P1;PMS_P2;Temp;Humidity;BMP_temperature;BMP_pressure;BME280_temperature;BME280_humidity;BME280_pressure;Samples;Min_cycle;Max_cycle;Signal;HPM_P1;HPM_P2
2023/03/15 00:01:53;;;;;;;4.70;4.20;;;1.80;1.00;;;;;;5036695;28;20508;-47
2023/03/15 00:04:20;;;;;;;5.17;4.50;;;1.80;1.00;;;;;;5037921;28;20440;-45
2023/03/15 00:06:46;;;;;;;7.10;4.73;;;1.80;1.00;;;;;;5037017;28;20421;-48
2023/03/15 00:09:11;;;;;;;6.20;5.00;;;1.80;1.00;;;;;;5038857;28;20534;-46
2023/03/15 00:11:38;;;;;;;5.57;4.97;;;1.80;99.90;;;;;;5039383;28;20417;-46
2023/03/15 00:14:04;;;;;;;6.30;4.90;;;1.60;99.90;;;;;;5039253;28;20425;-46
2023/03/15 00:16:31;;;;;;;7.17;5.27;;;1.60;99.90;;;;;;5039121;28;20417;-47
2023/03/15 00:18:57;;;;;;;9.10;5.27;;;1.70;99.90;;;;;;5039189;28;20935;-44
2023/03/15 00:21:23;;;;;;;8.97;5.40;;;1.80;99.90;;;;;;5036770;28;20811;-45
2023/03/15 00:23:49;;;;;;;7.63;5.80;;;1.80;99.90;;;;;;5037529;28;20183;-44
2023/03/15 00:26:15;;;;;;;7.83;5.57;;;1.80;99.90;;;;;;5037625;28;20201;-44
2023/03/15 00:28:41;;;;;;;12.97;5.60;;;1.80;99.90;;;;;;5037833;28;20260;-45
2023/03/15 00:31:08;;;;;;;6.80;4.60;;;1.80;99.90;;;;;;5037089;28;20872;-44
2023/03/15 00:33:34;;;;;;;7.70;4.10;;;1.80;99.90;;;;;;5036216;28;20174;-45
2023/03/15 00:36:05;;;;;;;6.20;4.50;;;1.80;99.90;;;;;;5037345;28;20437;-48
2023/03/15 00:38:32;;;;;;;8.07;4.83;;;1.80;99.90;;;;;;5037843;28;20448;-44
2023/03/15 00:41:02;;;;;;;6.47;4.50;;;1.80;99.90;;;;;;5037901;28;20441;-47
2023/03/15 00:43:28;;;;;;;8.67;4.40;;;1.90;99.90;;;;;;5038372;28;20417;-44
2023/03/15 00:45:54;;;;;;;4.70;4.20;;;1.90;99.90;;;;;;5038536;28;20479;-45
2023/03/15 00:48:19;;;;;;;5.97;4.37;;;1.90;99.90;;;;;;5038627;28;20187;-44
2023/03/15 00:50:45;;;;;;;6.93;3.73;;;1.90;99.90;;;;;;5038790;28;20217;-43
2023/03/15 00:53:11;;;;;;;7.97;3.97;;;1.90;99.90;;;;;;5038212;28;20175;-46
2023/03/15 00:55:36;;;;;;;4.97;3.90;;;1.90;99.90;;;;;;5038100;28;20183;-46
2023/03/15 00:58:02;;;;;;;9.00;4.10;;;1.90;99.90;;;;;;5038458;28;20189;-45
2023/03/15 01:00:28;;;;;;;6.23;5.63;;;1.90;99.90;;;;;;5037161;28;20266;-46
2023/03/15 01:02:54;;;;;;;4.20;3.53;;;1.90;99.90;;;;;;5037932;28;20194;-45
2023/03/15 01:05:20;;;;;;;5.80;3.47;;;1.80;99.90;;;;;;5037622;28;20206;-45
2023/03/15 01:07:46;;;;;;;8.43;4.50;;;1.90;99.90;;;;;;5037693;28;20422;-46
2023/03/15 01:10:13;;;;;;;8.77;3.70;;;1.90;99.90;;;;;;5036582;28;20495;-45
2023/03/15 01:12:39;;;;;;;7.23;4.10;;;1.90;99.90;;;;;;5037435;28;20669;-45
2023/03/15 01:15:07;;;;;;;10.50;3.10;;;1.90;99.90;;;;;;5037715;28;20688;-45
2023/03/15 01:17:33;;;;;;;9.50;3.00;;;1.90;99.90;;;;;;5037510;28;20816;-44
2023/03/15 01:19:59;;;;;;;5.90;2.97;;;2.00;99.90;;;;;;5036915;28;20421;-46
2023/03/15 01:22:25;;;;;;;6.27;2.80;;;2.00;99.90;;;;;;5037218;28;20441;-45
2023/03/15 01:24:50;;;;;;;7.20;3.37;;;1.90;99.90;;;;;;5037532;28;20194;-43
2023/03/15 01:27:16;;;;;;;5.53;2.40;;;1.90;99.90;;;;;;5037522;28;20425;-45
2023/03/15 01:29:42;;;;;;;6.17;3.07;;;1.80;99.90;;;;;;5036530;28;20667;-47
2023/03/15 01:32:07;;;;;;;7.87;2.73;;;1.80;99.90;;;;;;5037353;28;20182;-45
2023/03/15 01:34:34;;;;;;;4.80;2.87;;;1.80;99.90;;;;;;5037018;28;20205;-45
2023/03/15 01:36:59;;;;;;;4.40;2.40;;;1.80;99.90;;;;;;5037088;28;20206;-47
2023/03/15 01:39:25;;;;;;;9.93;2.70;;;1.70;99.90;;;;;;5036153;28;20421;-45
2023/03/15 01:41:51;;;;;;;8.50;2.73;;;1.70;99.90;;;;;;5035973;28;20452;-46
2023/03/15 01:44:18;;;;;;;3.87;1.90;;;1.70;99.90;;;;;;5036441;28;20214;-47
2023/03/15 01:46:44;;;;;;;6.80;2.27;;;1.60;94.40;;;;;;5034826;28;20328;-49
2023/03/15 01:49:13;;;;;;;4.20;1.93;;;1.50;99.90;;;;;;5036602;28;20551;-45
2023/03/15 01:52:05;;;;;;;6.67;2.40;;;1.40;97.80;;;;;;5035577;28;20260;-44
2023/03/15 01:54:44;;;;;;;3.70;2.03;;;1.40;92.40;;;;;;5036994;28;20425;-46
2023/03/15 01:57:21;;;;;;;8.27;2.30;;;1.40;78.30;;;;;;5036096;28;20460;-44
2023/03/15 02:00:14;;;;;;;8.63;2.27;;;1.40;52.20;;;;;;5035579;28;20499;-45
2023/03/15 02:02:45;;;;;;;4.23;2.20;;;1.30;99.90;;;;;;5033667;28;20448;-47
2023/03/15 02:05:14;;;;;;;6.17;2.20;;;1.30;99.90;;;;;;5036648;28;20531;-47
2023/03/15 02:07:48;;;;;;;2.90;1.60;;;1.20;99.90;;;;;;5035919;28;20785;-45
2023/03/15 02:10:28;;;;;;;4.30;1.90;;;1.20;97.80;;;;;;5036056;28;20533;-44
2023/03/15 02:12:55;;;;;;;5.83;2.30;;;1.20;91.80;;;;;;5035035;28;20478;-44
2023/03/15 02:15:20;;;;;;;4.50;1.80;;;1.10;99.90;;;;;;5035447;28;20417;-45
2023/03/15 02:17:47;;;;;;;7.63;2.67;;;1.10;99.90;;;;;;5033836;28;20436;-44
2023/03/15 02:20:28;;;;;;;6.33;2.67;;;1.10;99.90;;;;;;5036250;28;20183;-47
2023/03/15 02:23:00;;;;;;;5.37;2.07;;;1.00;99.90;;;;;;5036105;28;20425;-46
2023/03/15 02:25:50;;;;;;;4.43;1.90;;;0.90;99.90;;;;;;5034896;28;20524;-45
2023/03/15 02:28:17;;;;;;;16.27;2.53;;;0.90;99.90;;;;;;5035594;28;20418;-46
2023/03/15 02:30:43;;;;;;;3.97;2.13;;;0.90;99.90;;;;;;5034862;28;20548;-48
2023/03/15 02:33:18;;;;;;;3.53;1.80;;;0.80;99.90;;;;;;5036416;28;20420;-44
2023/03/15 02:35:44;;;;;;;4.10;1.90;;;0.80;99.90;;;;;;5035909;28;20825;-44
2023/03/15 02:38:09;;;;;;;7.50;2.43;;;0.80;99.90;;;;;;5035485;28;20810;-44
2023/03/15 02:40:35;;;;;;;3.33;1.80;;;0.80;99.90;;;;;;5033956;28;20244;-46
2023/03/15 02:43:17;;;;;;;8.23;3.50;;;0.80;99.90;;;;;;5033798;28;20174;-45
2023/03/15 02:45:44;;;;;;;4.40;1.93;;;0.80;99.90;;;;;;5036355;28;20295;-47
2023/03/15 02:48:10;;;;;;;6.40;2.60;;;0.70;99.90;;;;;;5036963;28;20413;-45
2023/03/15 02:50:36;;;;;;;5.10;2.20;;;0.70;99.90;;;;;;5036565;28;20742;-45
2023/03/15 02:53:02;;;;;;;6.50;2.50;;;0.70;99.90;;;;;;5036543;28;20452;-45
2023/03/15 02:55:31;;;;;;;9.47;2.20;;;0.70;99.90;;;;;;5035502;28;20173;-43
2023/03/15 03:01:18;;;;;;;3.93;2.90;;;0.70;99.90;;;;;;5036222;28;20672;-44
2023/03/15 03:03:45;;;;;;;6.00;2.00;;;0.70;99.90;;;;;;5036321;28;20421;-48
2023/03/15 03:06:12;;;;;;;7.40;2.17;;;0.80;99.90;;;;;;5036498;28;20273;-44
2023/03/15 03:08:38;;;;;;;6.77;2.10;;;0.70;54.10;;;;;;5035257;28;20417;-45
2023/03/15 03:11:05;;;;;;;4.23;2.40;;;0.80;39.10;;;;;;5034678;28;20816;-44
2023/03/15 03:13:30;;;;;;;6.03;2.77;;;0.80;37.50;;;;;;5036145;28;20445;-43
2023/03/15 03:15:59;;;;;;;3.20;2.30;;;0.80;43.60;;;;;;5036752;28;20468;-43
2023/03/15 03:18:25;;;;;;;6.13;2.43;;;0.80;1.00;;;;;;5035323;28;20179;-45
2023/03/15 03:20:54;;;;;;;3.70;2.47;;;0.80;1.00;;;;;;5034904;28;20527;-45
2023/03/15 03:23:20;;;;;;;7.47;4.03;;;0.80;1.00;;;;;;5036221;28;20424;-45
2023/03/15 03:25:46;;;;;;;4.57;2.87;;;0.90;1.00;;;;;;5037182;28;20435;-48
2023/03/15 03:28:11;;;;;;;10.23;3.60;;;0.80;1.00;;;;;;5038815;28;20254;-45
2023/03/15 03:30:37;;;;;;;7.13;2.77;;;0.80;1.00;;;;;;5038538;28;20373;-44
2023/03/15 03:33:03;;;;;;;5.30;2.63;;;0.80;1.00;;;;;;5038436;28;20260;-45
2023/03/15 03:35:31;;;;;;;6.27;3.20;;;0.80;1.00;;;;;;5038494;28;20582;-44
2023/03/15 03:37:56;;;;;;;2.70;2.10;;;0.80;1.00;;;;;;5038758;28;20826;-44
2023/03/15 03:40:22;;;;;;;5.50;2.57;;;0.80;1.00;;;;;;5037491;28;20719;-43
2023/03/15 03:42:48;;;;;;;8.10;3.67;;;0.80;1.00;;;;;;5039240;28;20178;-46
2023/03/15 03:45:13;;;;;;;4.50;3.07;;;0.80;1.00;;;;;;5038674;28;20281;-47
2023/03/15 03:47:39;;;;;;;6.43;2.87;;;0.80;1.00;;;;;;5039296;28;20182;-45
2023/03/15 03:50:05;;;;;;;7.77;3.10;;;0.80;1.00;;;;;;5039970;28;20317;-44
2023/03/15 03:52:31;;;;;;;3.83;2.10;;;0.80;1.00;;;;;;5040055;28;20190;-45
2023/03/15 03:54:57;;;;;;;4.27;2.53;;;0.80;1.00;;;;;;5038617;28;20425;-47
2023/03/15 03:57:22;;;;;;;3.83;3.03;;;0.70;1.00;;;;;;5039239;28;20196;-46
2023/03/15 03:59:48;;;;;;;4.80;2.50;;;0.70;1.00;;;;;;5037440;28;20377;-46
2023/03/15 04:02:14;;;;;;;6.60;2.90;;;0.70;1.00;;;;;;5037694;28;20535;-44
2023/03/15 04:04:40;;;;;;;5.53;2.90;;;0.60;1.00;;;;;;5039293;28;20256;-45
2023/03/15 04:07:07;;;;;;;5.90;2.60;;;0.50;1.00;;;;;;5038619;28;20500;-45
2023/03/15 04:09:36;;;;;;;5.77;3.73;;;0.50;1.00;;;;;;5038786;28;20894;-45
2023/03/15 04:12:02;;;;;;;6.50;3.20;;;0.50;5.50;;;;;;5038878;28;20444;-43
2023/03/15 04:14:28;;;;;;;5.60;3.03;;;0.50;8.40;;;;;;5038655;28;20524;-45
2023/03/15 04:16:54;;;;;;;5.27;3.37;;;0.40;20.80;;;;;;5037901;28;20487;-45
2023/03/15 04:19:19;;;;;;;7.70;4.03;;;0.40;24.50;;;;;;5037539;28;20205;-47
2023/03/15 04:21:46;;;;;;;8.47;3.87;;;0.40;1.00;;;;;;5038035;28;20213;-44
2023/03/15 04:24:12;;;;;;;5.00;3.70;;;0.50;1.00;;;;;;5037737;28;20257;-46
2023/03/15 04:26:38;;;;;;;9.70;5.57;;;0.40;1.00;;;;;;5036454;28;20428;-45
2023/03/15 04:29:04;;;;;;;7.20;3.77;;;0.50;1.00;;;;;;5035777;28;20508;-43
2023/03/15 04:31:36;;;;;;;14.60;4.40;;;0.50;1.00;;;;;;5036259;28;20246;-45
2023/03/15 04:34:02;;;;;;;5.87;3.87;;;0.40;1.00;;;;;;5036503;28;20695;-45
2023/03/15 04:36:28;;;;;;;10.40;4.07;;;0.40;1.00;;;;;;5037124;28;20487;-48
2023/03/15 04:39:04;;;;;;;7.07;3.97;;;0.40;1.00;;;;;;5035562;28;20448;-46
2023/03/15 04:41:30;;;;;;;9.17;4.17;;;0.40;1.00;;;;;;5035963;28;20461;-45
2023/03/15 04:43:56;;;;;;;8.50;4.30;;;0.40;1.00;;;;;;5036219;28;20878;-46
2023/03/15 04:46:21;;;;;;;9.20;4.30;;;0.40;1.00;;;;;;5036426;28;20695;-44
2023/03/15 04:48:47;;;;;;;13.13;5.00;;;0.50;1.00;;;;;;5035056;28;20179;-44
2023/03/15 04:51:13;;;;;;;9.83;5.23;;;0.50;1.00;;;;;;5035283;28;20546;-44
2023/03/15 04:53:38;;;;;;;7.23;4.93;;;0.40;1.00;;;;;;5035495;28;20178;-45
2023/03/15 04:56:05;;;;;;;8.97;4.17;;;0.40;1.00;;;;;;5035277;28;20533;-44
2023/03/15 04:58:31;;;;;;;10.50;4.87;;;0.40;1.00;;;;;;5034977;28;20174;-45
2023/03/15 05:00:57;;;;;;;5.50;4.00;;;0.40;1.00;;;;;;5035750;28;20495;-45
2023/03/15 05:03:22;;;;;;;10.43;4.93;;;0.40;1.00;;;;;;5034533;28;20201;-45
2023/03/15 05:05:48;;;;;;;5.97;4.10;;;0.40;1.00;;;;;;5034723;28;20190;-48
2023/03/15 05:08:14;;;;;;;6.53;4.60;;;0.40;1.00;;;;;;5036767;28;20658;-46
2023/03/15 05:10:39;;;;;;;8.73;4.33;;;0.40;1.00;;;;;;5036347;28;20579;-44
2023/03/15 05:13:05;;;;;;;15.97;4.60;;;0.40;1.00;;;;;;5038008;28;20182;-45
2023/03/15 05:15:31;;;;;;;9.60;3.97;;;0.40;1.00;;;;;;5036370;28;20217;-45
2023/03/15 05:17:57;;;;;;;5.03;4.20;;;0.30;1.00;;;;;;5036614;28;20425;-44
2023/03/15 05:20:24;;;;;;;8.17;4.20;;;0.30;1.00;;;;;;5037332;28;20175;-48
2023/03/15 05:22:52;;;;;;;5.63;4.10;;;0.40;1.00;;;;;;5037081;28;20171;-48
2023/03/15 05:25:17;;;;;;;6.87;4.83;;;0.40;1.00;;;;;;5035968;28;20429;-46
2023/03/15 05:27:45;;;;;;;9.83;4.90;;;0.40;1.00;;;;;;5036679;28;20493;-45
2023/03/15 05:30:11;;;;;;;6.40;4.20;;;0.40;1.00;;;;;;5036170;28;20234;-44
2023/03/15 05:32:38;;;;;;;6.97;4.17;;;0.40;1.00;;;;;;5036056;28;20708;-45
2023/03/15 05:35:05;;;;;;;4.90;4.40;;;0.40;1.00;;;;;;5036426;28;20410;-48
2023/03/15 05:37:32;;;;;;;5.73;5.07;;;0.40;1.00;;;;;;5035316;28;20443;-49
2023/03/15 05:40:00;;;;;;;8.17;5.30;;;0.40;1.00;;;;;;5033038;28;20433;-44
2023/03/15 05:42:26;;;;;;;7.77;5.10;;;0.30;1.00;;;;;;5033367;28;20460;-48
2023/03/15 05:44:55;;;;;;;9.40;4.73;;;0.30;1.00;;;;;;5032114;28;20479;-46
2023/03/15 05:47:22;;;;;;;7.87;4.37;;;0.30;1.00;;;;;;5033837;28;20425;-47
2023/03/15 05:49:48;;;;;;;9.87;4.13;;;0.30;1.00;;;;;;5032293;28;20550;-43
2023/03/15 05:52:14;;;;;;;7.70;4.50;;;0.20;1.00;;;;;;5033746;28;20524;-44
2023/03/15 05:54:40;;;;;;;6.40;3.83;;;0.20;1.00;;;;;;5030826;28;20751;-45
2023/03/15 05:57:06;;;;;;;9.17;4.40;;;0.20;1.00;;;;;;5032105;28;20619;-44
2023/03/15 05:59:32;;;;;;;7.30;5.10;;;0.20;1.00;;;;;;5032514;28;20186;-45
2023/03/15 06:01:57;;;;;;;10.00;4.90;;;0.20;1.00;;;;;;5028915;28;20214;-46
2023/03/15 06:04:23;;;;;;;6.57;4.70;;;0.20;1.00;;;;;;5033964;28;20441;-46
2023/03/15 06:06:49;;;;;;;11.33;5.20;;;0.30;1.00;;;;;;5031502;28;20205;-46
2023/03/15 06:09:15;;;;;;;9.00;5.60;;;0.20;1.00;;;;;;5031744;28;20241;-44
2023/03/15 06:11:41;;;;;;;5.57;4.00;;;0.30;1.00;;;;;;5031083;28;20563;-44
2023/03/15 06:14:06;;;;;;;4.90;4.37;;;0.30;1.00;;;;;;5030241;28;20179;-47
2023/03/15 06:16:32;;;;;;;6.13;5.00;;;0.40;1.00;;;;;;5030473;28;20175;-44
2023/03/15 06:18:58;;;;;;;7.67;4.53;;;0.40;1.00;;;;;;5029813;28;20221;-48
2023/03/15 06:21:23;;;;;;;9.07;4.63;;;0.50;1.00;;;;;;5027693;28;20162;-46
2023/03/15 06:23:49;;;;;;;5.57;4.33;;;0.50;1.00;;;;;;5024883;28;20186;-47
2023/03/15 06:26:17;;;;;;;5.97;4.70;;;0.60;1.00;;;;;;5025827;28;20341;-44
2023/03/15 06:28:43;;;;;;;11.23;4.60;;;0.70;99.90;;;;;;5027577;28;20182;-46
2023/03/15 06:31:10;;;;;;;11.10;5.90;;;0.80;99.90;;;;;;5028103;28;21057;-43
2023/03/15 06:33:36;;;;;;;7.13;4.40;;;0.90;99.90;;;;;;5031214;28;20237;-44
2023/03/15 06:36:03;;;;;;;6.80;4.27;;;1.00;99.90;;;;;;5033596;28;20421;-48
2023/03/15 06:38:30;;;;;;;10.20;5.20;;;1.20;99.90;;;;;;5031406;28;20437;-45
2023/03/15 06:40:57;;;;;;;6.53;4.60;;;1.40;99.90;;;;;;5028016;28;20433;-47
2023/03/15 06:43:24;;;;;;;5.63;4.27;;;1.50;82.60;;;;;;5028031;28;20698;-45
2023/03/15 06:45:52;;;;;;;12.13;4.73;;;1.60;1.00;;;;;;5028377;28;20429;-45
2023/03/15 06:48:17;;;;;;;5.23;4.13;;;1.70;99.90;;;;;;5028985;28;21014;-47
2023/03/15 06:50:43;;;;;;;7.13;4.07;;;1.90;99.90;;;;;;5029057;28;20470;-46
2023/03/15 06:53:09;;;;;;;7.13;4.07;;;2.00;1.00;;;;;;5031044;28;20195;-47
2023/03/15 06:55:35;;;;;;;9.47;4.10;;;2.00;1.00;;;;;;5029339;28;20443;-45
2023/03/15 06:58:00;;;;;;;8.60;3.83;;;2.20;1.00;;;;;;5033392;28;20221;-46
2023/03/15 07:00:26;;;;;;;8.50;4.30;;;2.40;99.90;;;;;;5035703;28;20628;-46
2023/03/15 07:02:52;;;;;;;9.00;4.03;;;2.60;99.90;;;;;;5038183;28;20174;-47
2023/03/15 07:05:18;;;;;;;9.87;4.57;;;2.80;99.90;;;;;;5037851;28;20178;-45
2023/03/15 07:07:44;;;;;;;7.90;3.60;;;3.00;1.00;;;;;;5035591;28;20182;-47
2023/03/15 07:10:10;;;;;;;8.03;3.70;;;3.20;99.90;;;;;;5037612;28;20511;-45
2023/03/15 07:12:37;;;;;;;7.80;4.50;;;3.40;1.00;;;;;;5037699;28;20178;-46
2023/03/15 07:15:03;;;;;;;8.17;4.37;;;3.70;99.90;;;;;;5037257;28;20417;-44
2023/03/15 07:17:29;;;;;;;5.37;3.83;;;3.90;99.90;;;;;;5038120;28;20693;-48
2023/03/15 07:19:55;;;;;;;9.57;3.50;;;4.10;1.00;;;;;;5037261;28;20417;-46
2023/03/15 07:22:21;;;;;;;9.80;3.50;;;4.10;1.00;;;;;;5037581;28;20174;-45
2023/03/15 07:24:47;;;;;;;15.63;4.30;;;4.10;94.30;;;;;;5037723;28;20174;-46
2023/03/15 07:27:13;;;;;;;7.50;3.47;;;4.10;1.00;;;;;;5035504;28;20757;-45
2023/03/15 07:29:40;;;;;;;6.90;3.60;;;3.70;99.90;;;;;;5034099;28;20567;-47
2023/03/15 07:32:05;;;;;;;6.10;3.63;;;3.70;52.80;;;;;;5036184;28;20425;-45
2023/03/15 07:34:31;;;;;;;12.13;3.70;;;3.80;1.00;;;;;;5038714;28;20501;-45
2023/03/15 07:36:57;;;;;;;7.60;3.37;;;4.00;1.00;;;;;;5039063;28;20423;-46
2023/03/15 07:39:24;;;;;;;5.50;3.57;;;4.00;1.00;;;;;;5038529;28;20551;-46
2023/03/15 07:41:51;;;;;;;5.87;3.67;;;4.50;1.00;;;;;;5038655;28;20182;-47
2023/03/15 07:44:16;;;;;;;8.53;4.13;;;4.80;1.00;;;;;;5039298;28;20477;-48
2023/03/15 07:46:42;;;;;;;5.73;3.50;;;5.20;99.90;;;;;;5039333;28;20502;-46
2023/03/15 07:49:07;;;;;;;8.53;3.57;;;5.60;1.00;;;;;;5038873;28;20186;-47
2023/03/15 07:51:33;;;;;;;4.80;3.60;;;6.00;1.00;;;;;;5037029;28;20189;-47
2023/03/15 07:53:59;;;;;;;5.20;3.47;;;6.40;1.00;;;;;;5036587;28;20178;-45
2023/03/15 07:56:25;;;;;;;7.40;3.80;;;6.70;99.90;;;;;;5037066;28;20175;-47
2023/03/15 07:58:50;;;;;;;5.60;3.20;;;6.80;99.90;;;;;;5036890;28;20173;-45
2023/03/15 08:01:16;;;;;;;7.33;3.40;;;7.00;99.90;;;;;;5039199;28;20450;-45
2023/03/15 08:03:41;;;;;;;3.30;2.77;;;7.40;45.60;;;;;;5039169;28;20187;-47
2023/03/15 08:06:07;;;;;;;4.27;2.87;;;7.90;17.00;;;;;;5038360;28;20186;-47
2023/03/15 08:08:33;;;;;;;8.00;3.50;;;8.30;1.00;;;;;;5038251;28;20488;-45
2023/03/15 08:10:59;;;;;;;3.23;2.47;;;8.90;1.00;;;;;;5035185;28;20297;-45
2023/03/15 08:13:25;;;;;;;4.73;2.83;;;9.10;1.00;;;;;;5033861;28;20228;-47
2023/03/15 08:15:50;;;;;;;6.77;3.23;;;9.10;1.00;;;;;;5033999;28;20475;-46
2023/03/15 08:18:16;;;;;;;6.23;3.00;;;9.00;1.00;;;;;;5032285;28;20179;-44
2023/03/15 08:20:42;;;;;;;4.73;3.10;;;9.40;1.00;;;;;;5034315;28;20694;-44
2023/03/15 08:23:08;;;;;;;5.87;2.70;;;9.70;1.00;;;;;;5034267;28;20178;-44
2023/03/15 08:25:39;;;;;;;5.70;3.23;;;10.10;1.00;;;;;;5034530;28;20186;-45
2023/03/15 08:28:05;;;;;;;3.07;2.30;;;10.00;1.00;;;;;;5036240;28;20445;-44
2023/03/15 08:30:30;;;;;;;5.17;2.30;;;10.10;1.00;;;;;;5034415;28;20917;-44
2023/03/15 08:32:56;;;;;;;3.20;2.20;;;10.00;1.00;;;;;;5034051;28;20179;-46
2023/03/15 08:35:22;;;;;;;5.07;2.47;;;10.70;1.00;;;;;;5030752;28;20170;-44
2023/03/15 08:37:48;;;;;;;6.13;2.60;;;11.30;1.00;;;;;;5033232;28;20167;-43
2023/03/15 08:40:24;;;;;;;3.03;1.77;;;11.10;1.00;;;;;;5031437;28;20428;-43
2023/03/15 08:42:51;;;;;;;5.40;3.00;;;11.60;1.00;;;;;;5033137;28;20177;-44
2023/03/15 08:45:16;;;;;;;4.40;2.53;;;12.20;1.00;;;;;;5033416;28;20776;-44
2023/03/15 08:47:42;;;;;;;9.00;3.00;;;12.20;1.00;;;;;;5032563;28;20512;-44
2023/03/15 08:50:11;;;;;;;4.73;2.93;;;12.40;1.00;;;;;;5036009;28;20202;-44
2023/03/15 08:52:37;;;;;;;5.00;2.40;;;11.40;1.00;;;;;;5037623;28;20186;-43
2023/03/15 08:55:03;;;;;;;4.37;2.50;;;11.20;1.00;;;;;;5036275;28;20918;-45
2023/03/15 08:57:31;;;;;;;10.47;2.93;;;11.70;1.00;;;;;;5034274;28;20421;-45
2023/03/15 08:59:59;;;;;;;8.37;2.90;;;12.20;1.00;;;;;;5034073;28;20712;-45
2023/03/15 09:02:24;;;;;;;3.30;2.10;;;11.80;1.00;;;;;;5033368;28;20433;-45
2023/03/15 09:04:50;;;;;;;4.50;2.30;;;11.00;1.00;;;;;;5036343;28;20431;-43
2023/03/15 09:07:16;;;;;;;5.77;2.30;;;10.30;1.00;;;;;;5036785;28;20213;-43
2023/03/15 09:09:46;;;;;;;4.10;2.30;;;10.40;1.00;;;;;;5037190;28;20519;-44
2023/03/15 09:12:16;;;;;;;5.10;2.87;;;11.00;1.00;;;;;;5034672;28;20232;-47
2023/03/15 09:14:42;;;;;;;4.60;2.60;;;11.50;1.00;;;;;;5036081;28;20817;-45
2023/03/15 09:17:08;;;;;;;5.20;2.30;;;11.80;1.00;;;;;;5037330;28;20482;-44
2023/03/15 09:19:34;;;;;;;6.93;2.77;;;10.40;1.00;;;;;;5035275;28;20421;-45
2023/03/15 09:22:01;;;;;;;3.20;2.10;;;10.00;1.00;;;;;;5036396;28;20444;-47
2023/03/15 09:24:26;;;;;;;6.17;2.53;;;9.20;1.00;;;;;;5035637;28;20536;-44
2023/03/15 09:26:52;;;;;;;6.80;2.87;;;8.70;1.00;;;;;;5034706;28;20429;-48
2023/03/15 09:29:18;;;;;;;5.57;2.40;;;8.00;1.00;;;;;;5033837;28;20189;-46
2023/03/15 09:31:43;;;;;;;6.83;2.57;;;7.50;1.00;;;;;;5034209;28;20222;-46
2023/03/15 09:34:09;;;;;;;5.70;2.60;;;7.40;1.00;;;;;;5036048;28;20240;-44
2023/03/15 09:36:36;;;;;;;4.63;2.03;;;7.30;1.00;;;;;;5034379;28;20198;-44
2023/03/15 09:39:02;;;;;;;5.07;2.43;;;7.40;1.00;;;;;;5034886;28;20411;-46
2023/03/15 09:41:42;;;;;;;3.37;1.87;;;7.40;1.00;;;;;;5031654;28;20221;-45
2023/03/15 09:44:17;;;;;;;3.03;2.00;;;7.40;1.00;;;;;;5033363;28;20473;-45
2023/03/15 09:46:50;;;;;;;4.70;1.90;;;7.70;1.00;;;;;;5032970;28;20935;-44
2023/03/15 09:49:34;;;;;;;5.23;2.10;;;7.30;1.00;;;;;;5032063;28;20413;-46
2023/03/15 09:52:10;;;;;;;3.23;1.53;;;7.10;1.00;;;;;;5032992;28;20498;-44
2023/03/15 09:55:03;;;;;;;5.03;1.60;;;6.50;1.00;;;;;;5034433;28;20409;-47
2023/03/15 09:57:45;;;;;;;6.80;2.20;;;6.30;1.00;;;;;;5031218;28;20456;-45
2023/03/15 10:00:15;;;;;;;6.27;1.80;;;6.20;1.00;;;;;;5031206;28;20811;-47
2023/03/15 10:03:00;;;;;;;5.53;1.80;;;6.50;1.00;;;;;;5030399;28;20475;-45
2023/03/15 10:05:42;;;;;;;5.73;3.40;;;6.20;1.00;;;;;;5030309;28;20405;-49
2023/03/15 10:08:13;;;;;;;2.13;1.60;;;6.60;1.00;;;;;;5032683;28;20410;-45
2023/03/15 10:11:06;;;;;;;3.87;2.97;;;7.30;1.00;;;;;;5033701;28;20830;-44
2023/03/15 10:13:52;;;;;;;4.47;2.73;;;7.80;1.00;;;;;;5035200;28;20508;-47
2023/03/15 10:16:25;;;;;;;3.47;1.77;;;8.50;1.00;;;;;;5014162;28;20780;-48
2023/03/15 10:19:11;;;;;;;3.30;2.20;;;9.30;1.00;;;;;;5034344;28;20970;-44
2023/03/15 10:21:44;;;;;;;3.40;1.30;;;9.30;1.00;;;;;;5035481;28;20715;-44
2023/03/15 10:24:29;;;;;;;3.27;1.77;;;9.40;1.00;;;;;;5034564;28;20894;-44
2023/03/15 10:26:58;;;;;;;7.17;2.63;;;9.20;1.00;;;;;;5033267;28;20881;-45
2023/03/15 10:29:25;;;;;;;1.57;1.20;;;9.60;1.00;;;;;;5034084;28;20413;-44
2023/03/15 10:31:51;;;;;;;3.00;1.47;;;9.40;1.00;;;;;;5032783;28;20521;-45
2023/03/15 10:34:18;;;;;;;3.33;1.83;;;9.70;1.00;;;;;;5034533;28;20440;-46
2023/03/15 10:36:48;;;;;;;4.80;1.90;;;10.40;1.00;;;;;;5035201;28;20425;-45
2023/03/15 10:39:14;;;;;;;5.03;2.47;;;11.10;1.00;;;;;;5034048;28;20688;-48
2023/03/15 10:41:45;;;;;;;5.33;1.87;;;12.70;1.00;;;;;;5034115;28;20486;-46
2023/03/15 10:44:15;;;;;;;4.60;1.57;;;12.20;1.00;;;;;;5032703;28;20496;-45
2023/03/15 10:46:41;;;;;;;2.03;1.33;;;12.20;1.00;;;;;;5034302;28;20839;-47
2023/03/15 10:49:12;;;;;;;4.23;1.70;;;12.20;1.00;;;;;;5033977;28;20440;-47
2023/03/15 10:51:45;;;;;;;2.67;1.57;;;11.60;1.00;;;;;;5034960;28;20422;-46
2023/03/15 10:54:16;;;;;;;3.80;1.90;;;11.30;1.00;;;;;;5032690;28;20661;-46
2023/03/15 10:57:01;;;;;;;4.80;1.30;;;11.20;1.00;;;;;;5032459;28;20444;-46
2023/03/15 10:59:29;;;;;;;2.77;1.47;;;11.80;1.00;;;;;;5032935;28;20456;-47
2023/03/15 11:02:24;;;;;;;2.90;1.20;;;13.40;1.00;;;;;;5030513;28;20460;-46
2023/03/15 11:05:07;;;;;;;2.67;1.40;;;14.40;1.00;;;;;;5017945;28;20429;-48
2023/03/15 11:07:36;;;;;;;2.20;1.03;;;13.10;1.00;;;;;;5030270;28;20436;-48
2023/03/15 11:10:07;;;;;;;4.80;1.50;;;11.80;1.00;;;;;;5029763;28;20689;-48
2023/03/15 11:12:33;;;;;;;3.23;1.90;;;11.00;1.00;;;;;;5030218;28;20421;-46
2023/03/15 11:15:19;;;;;;;5.07;2.80;;;10.50;1.00;;;;;;5032337;28;20428;-46
2023/03/15 11:17:48;;;;;;;4.07;2.00;;;9.90;1.00;;;;;;5030254;28;20478;-48
2023/03/15 11:20:30;;;;;;;3.30;1.67;;;9.20;1.00;;;;;;5031611;28;20449;-48
2023/03/15 11:22:56;;;;;;;5.00;2.60;;;9.00;1.00;;;;;;5045647;28;20451;-49
2023/03/15 11:25:29;;;;;;;2.97;1.77;;;8.50;1.00;;;;;;5030892;28;20487;-47
2023/03/15 11:27:55;;;;;;;2.63;1.60;;;8.10;1.00;;;;;;5012359;28;20448;-49
2023/03/15 11:30:30;;;;;;;4.17;1.40;;;8.10;1.00;;;;;;5031110;28;20918;-47
2023/03/15 11:33:06;;;;;;;3.87;1.27;;;8.00;1.00;;;;;;5030879;28;20186;-45
2023/03/15 11:35:35;;;;;;;5.30;1.67;;;7.60;1.00;;;;;;5032192;28;20409;-45
2023/03/15 11:38:32;;;;;;;4.60;1.20;;;7.40;1.00;;;;;;5033804;28;20800;-44
2023/03/15 11:40:58;;;;;;;2.20;1.00;;;7.60;1.00;;;;;;5024200;28;20819;-46
2023/03/15 11:43:39;;;;;;;1.90;1.03;;;7.60;1.00;;;;;;5032644;28;20528;-46
2023/03/15 11:46:09;;;;;;;2.00;0.90;;;7.80;1.00;;;;;;5032172;28;20413;-47
2023/03/15 11:48:39;;;;;;;1.97;0.93;;;7.60;1.00;;;;;;5033129;28;20433;-48
2023/03/15 11:51:06;;;;;;;3.00;1.23;;;7.30;1.00;;;;;;5036171;28;20519;-47
2023/03/15 11:53:36;;;;;;;2.77;1.00;;;7.30;1.00;;;;;;5038443;28;20420;-44
2023/03/15 11:56:22;;;;;;;3.80;1.07;;;7.20;1.00;;;;;;5037488;28;20424;-48
2023/03/15 11:59:12;;;;;;;1.70;1.33;;;7.00;1.00;;;;;;5034420;28;20479;-47
2023/03/15 12:01:44;;;;;;;3.20;1.37;;;6.80;1.00;;;;;;5035229;28;20542;-45
2023/03/15 12:04:31;;;;;;;4.33;1.03;;;7.00;1.00;;;;;;5036508;28;20428;-45
2023/03/15 12:07:05;;;;;;;3.60;0.90;;;7.50;1.00;;;;;;5035107;28;20409;-47
2023/03/15 12:09:31;;;;;;;2.63;0.80;;;7.50;1.00;;;;;;5033788;28;20441;-44
2023/03/15 12:11:58;;;;;;;4.90;3.00;;;7.40;1.00;;;;;;5034692;28;20601;-47
2023/03/15 12:14:33;;;;;;;5.67;1.53;;;7.50;1.00;;;;;;5036422;28;20182;-49
2023/03/15 12:17:22;;;;;;;5.10;1.87;;;7.60;1.00;;;;;;5034463;28;20640;-46
2023/03/15 12:20:08;;;;;;;1.80;1.00;;;7.70;1.00;;;;;;5025871;28;20421;-45
2023/03/15 12:22:34;;;;;;;4.50;0.80;;;7.70;1.00;;;;;;5034992;28;20429;-46
2023/03/15 12:25:10;;;;;;;3.23;0.80;;;8.10;1.00;;;;;;5034692;28;20478;-44
2023/03/15 12:27:36;;;;;;;3.63;0.83;;;8.30;1.00;;;;;;5035729;28;20425;-44
2023/03/15 12:30:02;;;;;;;2.33;1.20;;;8.50;1.00;;;;;;5033897;28;20500;-48
2023/03/15 12:32:30;;;;;;;3.83;1.67;;;8.70;1.00;;;;;;5035457;28;20425;-46
2023/03/15 12:34:56;;;;;;;1.83;0.80;;;9.50;1.00;;;;;;5032264;28;20504;-45
2023/03/15 12:37:37;;;;;;;1.57;0.90;;;10.10;1.00;;;;;;5034609;28;20803;-47
2023/03/15 12:40:44;;;;;;;1.87;0.90;;;10.60;1.00;;;;;;5032229;28;20445;-46
2023/03/15 12:43:11;;;;;;;2.20;1.67;;;10.90;1.00;;;;;;5030993;28;20470;-47
2023/03/15 12:45:42;;;;;;;1.80;0.90;;;10.50;1.00;;;;;;5031456;28;20424;-45
2023/03/15 12:48:11;;;;;;;3.43;1.90;;;10.80;1.00;;;;;;5029969;28;20449;-46
2023/03/15 12:50:43;;;;;;;3.80;1.87;;;11.50;1.00;;;;;;5031235;28;20460;-45
2023/03/15 12:53:27;;;;;;;3.97;1.40;;;12.30;1.00;;;;;;5032970;28;20794;-45
2023/03/15 12:55:54;;;;;;;2.23;1.10;;;11.60;1.00;;;;;;5031829;28;20474;-48
2023/03/15 12:58:26;;;;;;;2.87;1.30;;;11.30;1.00;;;;;;5032604;28;20421;-46
2023/03/15 13:00:52;;;;;;;2.53;1.03;;;9.90;1.00;;;;;;5034381;28;20417;-45
2023/03/15 13:03:22;;;;;;;3.30;1.23;;;9.60;1.00;;;;;;5034335;28;20531;-45
2023/03/15 13:06:24;;;;;;;2.50;1.20;;;9.30;1.00;;;;;;5032900;28;20429;-47
2023/03/15 13:09:36;;;;;;;2.47;0.97;;;9.50;1.00;;;;;;5018841;28;20438;-48
2023/03/15 13:12:14;;;;;;;2.60;1.27;;;9.40;1.00;;;;;;5016212;28;20433;-46
2023/03/15 13:14:54;;;;;;;2.27;1.27;;;9.20;1.00;;;;;;5034952;28;20401;-46
2023/03/15 13:17:20;;;;;;;3.87;1.30;;;8.90;1.00;;;;;;5035053;28;20688;-48